sensor_id;sensor_type;location;lat;lon;timestamp;P1;durP1;ratioP1;P2;durP2;ratioP2
25351;SDS011;13304;48.464;8.712;2022-12-18T00:00:42;57.80;;;23.83;;
25351;SDS011;13304;48.464;8.712;2022-12-18T00:03:08;62.63;;;24.17;;
25351;SDS011;13304;48.464;8.712;2022-12-18T00:05:35;59.07;;;24.80;;
25351;SDS011;13304;48.464;8.712;2022-12-18T00:08:01;64.13;;;24.53;;
25351;SDS011;13304;48.464;8.712;2022-12-18T00:10:27;50.90;;;22.43;;
25351;SDS011;13304;48.464;8.712;2022-12-18T00:12:53;57.73;;;24.90;;
25351;SDS011;13304;48.464;8.712;2022-12-18T00:15:19;64.50;;;24.77;;
25351;SDS011;13304;48.464;8.712;2022-12-18T00:17:45;59.00;;;23.50;;
25351;SDS011;13304;48.464;8.712;2022-12-18T00:20:11;58.43;;;23.40;;
25351;SDS011;13304;48.464;8.712;2022-12-18T00:22:37;55.77;;;23.97;;
25351;SDS011;13304;48.464;8.712;2022-12-18T00:25:02;48.70;;;22.40;;
25351;SDS011;13304;48.464;8.712;2022-12-18T00:27:28;55.97;;;23.67;;
25351;SDS011;13304;48.464;8.712;2022-12-18T00:29:54;62.73;;;22.33;;
25351;SDS011;13304;48.464;8.712;2022-12-18T00:32:19;57.80;;;22.93;;
25351;SDS011;13304;48.464;8.712;2022-12-18T00:34:45;60.47;;;23.80;;
25351;SDS011;13304;48.464;8.712;2022-12-18T00:37:11;54.27;;;23.57;;
25351;SDS011;13304;48.464;8.712;2022-12-18T00:39:36;71.13;;;27.73;;
25351;SDS011;13304;48.464;8.712;2022-12-18T00:42:02;76.07;;;30.20;;
25351;SDS011;13304;48.464;8.712;2022-12-18T00:44:46;56.83;;;24.80;;
25351;SDS011;13304;48.464;8.712;2022-12-18T00:47:11;65.07;;;27.23;;
25351;SDS011;13304;48.464;8.712;2022-12-18T00:49:37;55.13;;;23.10;;
25351;SDS011;13304;48.464;8.712;2022-12-18T00:52:03;62.97;;;25.87;;
25351;SDS011;13304;48.464;8.712;2022-12-18T00:54:28;53.77;;;24.60;;
25351;SDS011;13304;48.464;8.712;2022-12-18T00:56:54;58.27;;;23.53;;
25351;SDS011;13304;48.464;8.712;2022-12-18T00:59:20;55.47;;;22.97;;
25351;SDS011;13304;48.464;8.712;2022-12-18T01:01:46;57.50;;;23.17;;
25351;SDS011;13304;48.464;8.712;2022-12-18T01:04:12;55.67;;;23.00;;
25351;SDS011;13304;48.464;8.712;2022-12-18T01:06:38;59.80;;;22.33;;
25351;SDS011;13304;48.464;8.712;2022-12-18T01:09:04;55.63;;;21.70;;
25351;SDS011;13304;48.464;8.712;2022-12-18T01:11:30;60.17;;;22.23;;
25351;SDS011;13304;48.464;8.712;2022-12-18T01:13:56;54.07;;;22.73;;
25351;SDS011;13304;48.464;8.712;2022-12-18T01:16:24;50.92;;;21.98;;
25351;SDS011;13304;48.464;8.712;2022-12-18T01:18:53;44.57;;;19.63;;
25351;SDS011;13304;48.464;8.712;2022-12-18T01:21:20;47.60;;;19.70;;
25351;SDS011;13304;48.464;8.712;2022-12-18T01:23:50;47.13;;;20.33;;
25351;SDS011;13304;48.464;8.712;2022-12-18T01:26:17;49.70;;;20.50;;
25351;SDS011;13304;48.464;8.712;2022-12-18T01:28:42;56.23;;;21.10;;
25351;SDS011;13304;48.464;8.712;2022-12-18T01:31:19;53.13;;;21.80;;
25351;SDS011;13304;48.464;8.712;2022-12-18T01:33:45;48.67;;;21.10;;
25351;SDS011;13304;48.464;8.712;2022-12-18T01:36:19;46.97;;;20.10;;
25351;SDS011;13304;48.464;8.712;2022-12-18T01:38:48;47.00;;;20.77;;
25351;SDS011;13304;48.464;8.712;2022-12-18T01:41:17;49.70;;;21.23;;
25351;SDS011;13304;48.464;8.712;2022-12-18T01:46:11;50.47;;;22.67;;
25351;SDS011;13304;48.464;8.712;2022-12-18T01:48:37;44.30;;;19.13;;
25351;SDS011;13304;48.464;8.712;2022-12-18T01:51:04;45.87;;;20.90;;
25351;SDS011;13304;48.464;8.712;2022-12-18T01:53:31;48.83;;;20.47;;
25351;SDS011;13304;48.464;8.712;2022-12-18T01:55:57;50.30;;;21.07;;
25351;SDS011;13304;48.464;8.712;2022-12-18T01:58:27;62.50;;;23.37;;
25351;SDS011;13304;48.464;8.712;2022-12-18T02:01:05;54.57;;;21.97;;
25351;SDS011;13304;48.464;8.712;2022-12-18T02:03:31;57.00;;;22.00;;
25351;SDS011;13304;48.464;8.712;2022-12-18T02:06:06;62.90;;;22.73;;
25351;SDS011;13304;48.464;8.712;2022-12-18T02:08:58;56.13;;;23.53;;
25351;SDS011;13304;48.464;8.712;2022-12-18T02:11:52;53.40;;;23.67;;
25351;SDS011;13304;48.464;8.712;2022-12-18T02:17:20;50.67;;;21.58;;
25351;SDS011;13304;48.464;8.712;2022-12-18T02:27:50;56.60;;;22.93;;
25351;SDS011;13304;48.464;8.712;2022-12-18T02:30:17;59.73;;;24.33;;
25351;SDS011;13304;48.464;8.712;2022-12-18T02:32:45;56.37;;;23.63;;
25351;SDS011;13304;48.464;8.712;2022-12-18T02:35:16;65.53;;;23.97;;
25351;SDS011;13304;48.464;8.712;2022-12-18T02:37:46;64.23;;;23.43;;
25351;SDS011;13304;48.464;8.712;2022-12-18T02:40:12;60.20;;;23.30;;
25351;SDS011;13304;48.464;8.712;2022-12-18T02:42:40;61.20;;;22.97;;
25351;SDS011;13304;48.464;8.712;2022-12-18T02:45:06;57.80;;;23.07;;
25351;SDS011;13304;48.464;8.712;2022-12-18T02:47:32;55.77;;;23.13;;
25351;SDS011;13304;48.464;8.712;2022-12-18T02:50:22;63.47;;;23.03;;
25351;SDS011;13304;48.464;8.712;2022-12-18T02:53:11;63.60;;;24.40;;
25351;SDS011;13304;48.464;8.712;2022-12-18T02:56:31;52.07;;;22.73;;
25351;SDS011;13304;48.464;8.712;2022-12-18T02:59:38;60.63;;;24.13;;
25351;SDS011;13304;48.464;8.712;2022-12-18T03:02:04;60.13;;;24.03;;
25351;SDS011;13304;48.464;8.712;2022-12-18T03:04:39;62.93;;;25.43;;
25351;SDS011;13304;48.464;8.712;2022-12-18T03:07:08;62.00;;;25.77;;
25351;SDS011;13304;48.464;8.712;2022-12-18T03:09:41;55.70;;;25.03;;
25351;SDS011;13304;48.464;8.712;2022-12-18T03:14:59;57.77;;;23.63;;
25351;SDS011;13304;48.464;8.712;2022-12-18T03:17:35;64.10;;;25.63;;
25351;SDS011;13304;48.464;8.712;2022-12-18T03:20:05;53.78;;;23.83;;
25351;SDS011;13304;48.464;8.712;2022-12-18T03:22:39;60.43;;;25.23;;
25351;SDS011;13304;48.464;8.712;2022-12-18T03:25:09;65.80;;;24.55;;
25351;SDS011;13304;48.464;8.712;2022-12-18T03:27:40;57.13;;;23.83;;
25351;SDS011;13304;48.464;8.712;2022-12-18T03:30:12;52.10;;;22.27;;
25351;SDS011;13304;48.464;8.712;2022-12-18T03:32:41;55.85;;;23.10;;
25351;SDS011;13304;48.464;8.712;2022-12-18T03:35:27;50.77;;;22.63;;
25351;SDS011;13304;48.464;8.712;2022-12-18T03:37:56;55.90;;;22.70;;
25351;SDS011;13304;48.464;8.712;2022-12-18T03:40:24;52.90;;;22.10;;
25351;SDS011;13304;48.464;8.712;2022-12-18T03:43:02;53.20;;;23.90;;
25351;SDS011;13304;48.464;8.712;2022-12-18T03:45:45;52.13;;;23.97;;
25351;SDS011;13304;48.464;8.712;2022-12-18T03:48:26;56.53;;;24.03;;
25351;SDS011;13304;48.464;8.712;2022-12-18T03:51:07;62.80;;;24.30;;
25351;SDS011;13304;48.464;8.712;2022-12-18T03:56:20;59.53;;;24.37;;
25351;SDS011;13304;48.464;8.712;2022-12-18T03:58:48;62.42;;;22.88;;
25351;SDS011;13304;48.464;8.712;2022-12-18T04:01:17;62.00;;;24.00;;
25351;SDS011;13304;48.464;8.712;2022-12-18T04:03:47;62.37;;;24.23;;
25351;SDS011;13304;48.464;8.712;2022-12-18T04:06:14;56.37;;;23.57;;
25351;SDS011;13304;48.464;8.712;2022-12-18T04:08:41;40.43;;;17.40;;
25351;SDS011;13304;48.464;8.712;2022-12-18T04:11:07;38.30;;;18.37;;
25351;SDS011;13304;48.464;8.712;2022-12-18T04:13:36;38.17;;;18.03;;
25351;SDS011;13304;48.464;8.712;2022-12-18T04:16:03;43.03;;;18.57;;
25351;SDS011;13304;48.464;8.712;2022-12-18T04:18:29;40.27;;;18.13;;
25351;SDS011;13304;48.464;8.712;2022-12-18T04:20:55;45.90;;;18.93;;
25351;SDS011;13304;48.464;8.712;2022-12-18T04:23:21;39.80;;;17.63;;
25351;SDS011;13304;48.464;8.712;2022-12-18T04:25:47;52.30;;;21.40;;
25351;SDS011;13304;48.464;8.712;2022-12-18T04:28:13;54.60;;;23.47;;
25351;SDS011;13304;48.464;8.712;2022-12-18T04:30:38;57.40;;;22.50;;
25351;SDS011;13304;48.464;8.712;2022-12-18T04:33:08;65.07;;;23.60;;
25351;SDS011;13304;48.464;8.712;2022-12-18T04:35:34;52.63;;;23.13;;
25351;SDS011;13304;48.464;8.712;2022-12-18T04:38:00;63.33;;;24.20;;
25351;SDS011;13304;48.464;8.712;2022-12-18T04:40:26;57.33;;;23.20;;
25351;SDS011;13304;48.464;8.712;2022-12-18T04:42:51;47.87;;;19.80;;
25351;SDS011;13304;48.464;8.712;2022-12-18T04:45:17;47.03;;;20.20;;
25351;SDS011;13304;48.464;8.712;2022-12-18T04:47:43;49.93;;;20.03;;
25351;SDS011;13304;48.464;8.712;2022-12-18T04:50:08;52.93;;;20.87;;
25351;SDS011;13304;48.464;8.712;2022-12-18T04:52:34;54.93;;;21.37;;
25351;SDS011;13304;48.464;8.712;2022-12-18T04:55:00;67.97;;;28.73;;
25351;SDS011;13304;48.464;8.712;2022-12-18T04:57:25;59.13;;;24.13;;
25351;SDS011;13304;48.464;8.712;2022-12-18T04:59:52;51.77;;;20.40;;
25351;SDS011;13304;48.464;8.712;2022-12-18T05:02:18;52.93;;;21.40;;
25351;SDS011;13304;48.464;8.712;2022-12-18T05:04:43;52.97;;;21.47;;
25351;SDS011;13304;48.464;8.712;2022-12-18T05:07:09;49.10;;;20.73;;
25351;SDS011;13304;48.464;8.712;2022-12-18T05:09:35;54.70;;;22.67;;
25351;SDS011;13304;48.464;8.712;2022-12-18T05:12:00;59.40;;;21.37;;
25351;SDS011;13304;48.464;8.712;2022-12-18T05:14:26;59.33;;;22.77;;
25351;SDS011;13304;48.464;8.712;2022-12-18T05:16:54;52.47;;;23.40;;
25351;SDS011;13304;48.464;8.712;2022-12-18T05:19:19;69.10;;;25.23;;
25351;SDS011;13304;48.464;8.712;2022-12-18T05:21:45;63.67;;;24.67;;
25351;SDS011;13304;48.464;8.712;2022-12-18T05:24:11;67.93;;;25.60;;
25351;SDS011;13304;48.464;8.712;2022-12-18T05:26:36;68.73;;;26.03;;
25351;SDS011;13304;48.464;8.712;2022-12-18T05:29:02;61.17;;;25.07;;
25351;SDS011;13304;48.464;8.712;2022-12-18T05:31:28;56.67;;;21.93;;
25351;SDS011;13304;48.464;8.712;2022-12-18T05:33:53;57.30;;;23.97;;
25351;SDS011;13304;48.464;8.712;2022-12-18T05:36:19;58.37;;;22.33;;
25351;SDS011;13304;48.464;8.712;2022-12-18T05:38:45;60.03;;;24.17;;
25351;SDS011;13304;48.464;8.712;2022-12-18T05:41:11;57.00;;;22.73;;
25351;SDS011;13304;48.464;8.712;2022-12-18T05:43:37;59.77;;;24.07;;
25351;SDS011;13304;48.464;8.712;2022-12-18T05:46:04;62.60;;;23.50;;
25351;SDS011;13304;48.464;8.712;2022-12-18T05:48:32;61.15;;;22.75;;
25351;SDS011;13304;48.464;8.712;2022-12-18T05:51:02;62.03;;;22.07;;
25351;SDS011;13304;48.464;8.712;2022-12-18T05:53:30;55.13;;;21.50;;
25351;SDS011;13304;48.464;8.712;2022-12-18T05:55:59;63.40;;;24.07;;
25351;SDS011;13304;48.464;8.712;2022-12-18T05:58:25;60.03;;;22.77;;
25351;SDS011;13304;48.464;8.712;2022-12-18T06:00:51;64.43;;;22.97;;
25351;SDS011;13304;48.464;8.712;2022-12-18T06:03:16;68.23;;;23.90;;
25351;SDS011;13304;48.464;8.712;2022-12-18T06:05:43;61.53;;;22.87;;
25351;SDS011;13304;48.464;8.712;2022-12-18T06:08:10;57.07;;;22.07;;
25351;SDS011;13304;48.464;8.712;2022-12-18T06:10:36;67.33;;;24.83;;
25351;SDS011;13304;48.464;8.712;2022-12-18T06:13:02;66.47;;;23.70;;
25351;SDS011;13304;48.464;8.712;2022-12-18T06:15:28;88.90;;;28.33;;
25351;SDS011;13304;48.464;8.712;2022-12-18T06:17:54;76.03;;;23.97;;
25351;SDS011;13304;48.464;8.712;2022-12-18T06:20:20;74.53;;;24.93;;
25351;SDS011;13304;48.464;8.712;2022-12-18T06:22:46;72.87;;;24.97;;
25351;SDS011;13304;48.464;8.712;2022-12-18T06:25:12;70.33;;;24.30;;
25351;SDS011;13304;48.464;8.712;2022-12-18T06:27:37;61.03;;;23.17;;
25351;SDS011;13304;48.464;8.712;2022-12-18T06:30:03;68.77;;;23.03;;
25351;SDS011;13304;48.464;8.712;2022-12-18T06:32:29;71.23;;;24.70;;
25351;SDS011;13304;48.464;8.712;2022-12-18T06:34:55;71.80;;;25.30;;
25351;SDS011;13304;48.464;8.712;2022-12-18T06:37:21;61.57;;;23.67;;
25351;SDS011;13304;48.464;8.712;2022-12-18T06:39:51;60.70;;;23.13;;
25351;SDS011;13304;48.464;8.712;2022-12-18T06:42:17;65.77;;;22.80;;
25351;SDS011;13304;48.464;8.712;2022-12-18T06:44:43;63.67;;;22.30;;
25351;SDS011;13304;48.464;8.712;2022-12-18T06:47:09;60.03;;;22.47;;
25351;SDS011;13304;48.464;8.712;2022-12-18T06:49:34;69.60;;;24.23;;
25351;SDS011;13304;48.464;8.712;2022-12-18T06:52:00;69.40;;;23.53;;
25351;SDS011;13304;48.464;8.712;2022-12-18T06:54:26;61.87;;;24.30;;
25351;SDS011;13304;48.464;8.712;2022-12-18T06:56:51;59.37;;;23.67;;
25351;SDS011;13304;48.464;8.712;2022-12-18T06:59:17;61.53;;;23.53;;
25351;SDS011;13304;48.464;8.712;2022-12-18T07:01:42;65.43;;;22.33;;
25351;SDS011;13304;48.464;8.712;2022-12-18T07:04:08;71.30;;;24.10;;
25351;SDS011;13304;48.464;8.712;2022-12-18T07:06:34;64.80;;;23.70;;
25351;SDS011;13304;48.464;8.712;2022-12-18T07:08:59;63.20;;;23.60;;
25351;SDS011;13304;48.464;8.712;2022-12-18T07:11:25;69.07;;;24.93;;
25351;SDS011;13304;48.464;8.712;2022-12-18T07:13:51;67.40;;;23.60;;
25351;SDS011;13304;48.464;8.712;2022-12-18T07:16:19;54.97;;;22.53;;
25351;SDS011;13304;48.464;8.712;2022-12-18T07:18:45;67.57;;;25.47;;
25351;SDS011;13304;48.464;8.712;2022-12-18T07:21:12;71.70;;;25.97;;
25351;SDS011;13304;48.464;8.712;2022-12-18T07:23:42;66.97;;;24.67;;
25351;SDS011;13304;48.464;8.712;2022-12-18T07:26:10;74.67;;;24.63;;
25351;SDS011;13304;48.464;8.712;2022-12-18T07:28:38;63.13;;;24.55;;
25351;SDS011;13304;48.464;8.712;2022-12-18T07:31:05;61.07;;;23.93;;
25351;SDS011;13304;48.464;8.712;2022-12-18T07:33:32;62.13;;;24.43;;
25351;SDS011;13304;48.464;8.712;2022-12-18T07:35:59;64.73;;;24.17;;
25351;SDS011;13304;48.464;8.712;2022-12-18T07:38:25;60.47;;;24.03;;
25351;SDS011;13304;48.464;8.712;2022-12-18T07:40:51;94.93;;;33.00;;
25351;SDS011;13304;48.464;8.712;2022-12-18T07:43:16;100.37;;;34.87;;
25351;SDS011;13304;48.464;8.712;2022-12-18T07:45:42;152.37;;;50.17;;
25351;SDS011;13304;48.464;8.712;2022-12-18T07:48:08;119.57;;;43.37;;
25351;SDS011;13304;48.464;8.712;2022-12-18T07:50:34;104.27;;;39.47;;
25351;SDS011;13304;48.464;8.712;2022-12-18T07:53:00;112.07;;;40.47;;
25351;SDS011;13304;48.464;8.712;2022-12-18T07:55:29;109.20;;;39.33;;
25351;SDS011;13304;48.464;8.712;2022-12-18T07:57:55;116.27;;;40.17;;
25351;SDS011;13304;48.464;8.712;2022-12-18T08:00:21;109.30;;;38.70;;
25351;SDS011;13304;48.464;8.712;2022-12-18T08:02:47;93.37;;;34.07;;
25351;SDS011;13304;48.464;8.712;2022-12-18T08:05:15;73.93;;;29.37;;
25351;SDS011;13304;48.464;8.712;2022-12-18T08:07:40;77.13;;;28.33;;
25351;SDS011;13304;48.464;8.712;2022-12-18T08:10:06;94.47;;;30.97;;
25351;SDS011;13304;48.464;8.712;2022-12-18T08:12:32;85.23;;;30.20;;
25351;SDS011;13304;48.464;8.712;2022-12-18T08:14:58;79.03;;;30.27;;
25351;SDS011;13304;48.464;8.712;2022-12-18T08:17:23;79.10;;;29.50;;
25351;SDS011;13304;48.464;8.712;2022-12-18T08:19:49;71.10;;;27.83;;
25351;SDS011;13304;48.464;8.712;2022-12-18T08:22:15;73.70;;;30.00;;
25351;SDS011;13304;48.464;8.712;2022-12-18T08:24:40;75.80;;;27.77;;
25351;SDS011;13304;48.464;8.712;2022-12-18T08:27:06;67.80;;;27.60;;
25351;SDS011;13304;48.464;8.712;2022-12-18T08:29:31;88.90;;;30.50;;
25351;SDS011;13304;48.464;8.712;2022-12-18T08:31:58;88.30;;;35.13;;
25351;SDS011;13304;48.464;8.712;2022-12-18T08:34:24;83.90;;;32.60;;
25351;SDS011;13304;48.464;8.712;2022-12-18T08:36:50;92.77;;;32.97;;
25351;SDS011;13304;48.464;8.712;2022-12-18T08:39:15;91.23;;;35.10;;
25351;SDS011;13304;48.464;8.712;2022-12-18T08:41:41;87.83;;;36.60;;
25351;SDS011;13304;48.464;8.712;2022-12-18T08:44:07;94.33;;;35.73;;
25351;SDS011;13304;48.464;8.712;2022-12-18T08:46:51;85.70;;;34.77;;
25351;SDS011;13304;48.464;8.712;2022-12-18T08:49:17;87.80;;;34.57;;
25351;SDS011;13304;48.464;8.712;2022-12-18T08:51:43;83.70;;;34.70;;
25351;SDS011;13304;48.464;8.712;2022-12-18T08:54:10;94.23;;;39.93;;
25351;SDS011;13304;48.464;8.712;2022-12-18T08:56:38;75.07;;;33.50;;
25351;SDS011;13304;48.464;8.712;2022-12-18T08:59:03;85.50;;;34.33;;
25351;SDS011;13304;48.464;8.712;2022-12-18T09:01:33;88.87;;;37.53;;
25351;SDS011;13304;48.464;8.712;2022-12-18T09:03:59;91.27;;;37.70;;
25351;SDS011;13304;48.464;8.712;2022-12-18T09:06:24;98.27;;;41.53;;
25351;SDS011;13304;48.464;8.712;2022-12-18T09:08:51;101.00;;;41.03;;
25351;SDS011;13304;48.464;8.712;2022-12-18T09:11:24;90.00;;;37.07;;
25351;SDS011;13304;48.464;8.712;2022-12-18T09:13:51;69.23;;;29.97;;
25351;SDS011;13304;48.464;8.712;2022-12-18T09:16:18;66.03;;;29.43;;
25351;SDS011;13304;48.464;8.712;2022-12-18T09:18:44;72.40;;;29.93;;
25351;SDS011;13304;48.464;8.712;2022-12-18T09:21:11;70.20;;;29.47;;
25351;SDS011;13304;48.464;8.712;2022-12-18T09:23:41;65.50;;;27.23;;
25351;SDS011;13304;48.464;8.712;2022-12-18T09:26:08;69.67;;;28.37;;
25351;SDS011;13304;48.464;8.712;2022-12-18T09:28:33;77.77;;;29.97;;
25351;SDS011;13304;48.464;8.712;2022-12-18T09:31:02;73.97;;;30.17;;
25351;SDS011;13304;48.464;8.712;2022-12-18T09:33:30;65.67;;;28.57;;
25351;SDS011;13304;48.464;8.712;2022-12-18T09:35:56;73.27;;;28.97;;
25351;SDS011;13304;48.464;8.712;2022-12-18T09:38:22;73.47;;;29.23;;
25351;SDS011;13304;48.464;8.712;2022-12-18T09:40:51;70.63;;;28.60;;
25351;SDS011;13304;48.464;8.712;2022-12-18T09:43:20;70.20;;;28.87;;
25351;SDS011;13304;48.464;8.712;2022-12-18T09:46:26;64.30;;;27.27;;
25351;SDS011;13304;48.464;8.712;2022-12-18T09:48:57;67.83;;;27.43;;
25351;SDS011;13304;48.464;8.712;2022-12-18T09:51:27;63.67;;;26.40;;
25351;SDS011;13304;48.464;8.712;2022-12-18T09:54:04;64.90;;;26.83;;
25351;SDS011;13304;48.464;8.712;2022-12-18T09:56:38;61.97;;;25.63;;
25351;SDS011;13304;48.464;8.712;2022-12-18T09:59:22;64.43;;;27.30;;
25351;SDS011;13304;48.464;8.712;2022-12-18T10:01:51;64.17;;;26.90;;
25351;SDS011;13304;48.464;8.712;2022-12-18T10:04:17;72.57;;;28.97;;
25351;SDS011;13304;48.464;8.712;2022-12-18T10:06:46;74.20;;;28.47;;
25351;SDS011;13304;48.464;8.712;2022-12-18T10:09:20;75.60;;;30.67;;
25351;SDS011;13304;48.464;8.712;2022-12-18T10:14:57;66.37;;;28.17;;
25351;SDS011;13304;48.464;8.712;2022-12-18T10:17:50;82.03;;;33.20;;
25351;SDS011;13304;48.464;8.712;2022-12-18T10:20:31;77.03;;;31.83;;
25351;SDS011;13304;48.464;8.712;2022-12-18T10:26:10;76.50;;;33.73;;
25351;SDS011;13304;48.464;8.712;2022-12-18T10:28:37;71.60;;;30.03;;
25351;SDS011;13304;48.464;8.712;2022-12-18T10:31:06;78.30;;;33.10;;
25351;SDS011;13304;48.464;8.712;2022-12-18T10:33:37;74.50;;;31.77;;
25351;SDS011;13304;48.464;8.712;2022-12-18T10:36:02;76.33;;;31.70;;
25351;SDS011;13304;48.464;8.712;2022-12-18T10:38:29;76.37;;;31.37;;
25351;SDS011;13304;48.464;8.712;2022-12-18T10:41:04;80.23;;;32.40;;
25351;SDS011;13304;48.464;8.712;2022-12-18T10:43:32;78.97;;;33.57;;
25351;SDS011;13304;48.464;8.712;2022-12-18T10:48:47;79.80;;;32.37;;
25351;SDS011;13304;48.464;8.712;2022-12-18T10:54:02;77.17;;;32.77;;
25351;SDS011;13304;48.464;8.712;2022-12-18T10:56:39;83.23;;;31.93;;
25351;SDS011;13304;48.464;8.712;2022-12-18T10:59:06;79.40;;;31.77;;
25351;SDS011;13304;48.464;8.712;2022-12-18T11:06:57;78.40;;;33.10;;
25351;SDS011;13304;48.464;8.712;2022-12-18T11:09:28;78.07;;;31.97;;
25351;SDS011;13304;48.464;8.712;2022-12-18T11:11:57;85.32;;;33.45;;
25351;SDS011;13304;48.464;8.712;2022-12-18T11:14:26;79.30;;;32.92;;
25351;SDS011;13304;48.464;8.712;2022-12-18T11:16:53;78.67;;;32.90;;
25351;SDS011;13304;48.464;8.712;2022-12-18T11:19:21;80.20;;;31.80;;
25351;SDS011;13304;48.464;8.712;2022-12-18T11:21:56;86.43;;;31.97;;
25351;SDS011;13304;48.464;8.712;2022-12-18T11:26:57;86.23;;;34.40;;
25351;SDS011;13304;48.464;8.712;2022-12-18T11:29:33;83.70;;;34.70;;
25351;SDS011;13304;48.464;8.712;2022-12-18T11:34:59;82.43;;;34.27;;
25351;SDS011;13304;48.464;8.712;2022-12-18T11:38:12;82.00;;;33.67;;
25351;SDS011;13304;48.464;8.712;2022-12-18T11:40:55;82.90;;;35.20;;
25351;SDS011;13304;48.464;8.712;2022-12-18T11:43:27;81.03;;;33.60;;
25351;SDS011;13304;48.464;8.712;2022-12-18T11:46:04;80.17;;;33.50;;
25351;SDS011;13304;48.464;8.712;2022-12-18T11:48:38;85.00;;;31.83;;
25351;SDS011;13304;48.464;8.712;2022-12-18T11:51:15;86.83;;;33.30;;
25351;SDS011;13304;48.464;8.712;2022-12-18T11:53:51;82.93;;;33.67;;
25351;SDS011;13304;48.464;8.712;2022-12-18T11:56:26;87.93;;;35.50;;
25351;SDS011;13304;48.464;8.712;2022-12-18T11:59:07;96.57;;;35.40;;
25351;SDS011;13304;48.464;8.712;2022-12-18T12:01:58;91.13;;;36.13;;
25351;SDS011;13304;48.464;8.712;2022-12-18T12:23:28;82.23;;;34.23;;
25351;SDS011;13304;48.464;8.712;2022-12-18T12:26:10;81.47;;;34.03;;
25351;SDS011;13304;48.464;8.712;2022-12-18T12:32:18;84.47;;;35.57;;
25351;SDS011;13304;48.464;8.712;2022-12-18T12:40:26;80.83;;;34.77;;
25351;SDS011;13304;48.464;8.712;2022-12-18T12:42:56;87.67;;;37.73;;
25351;SDS011;13304;48.464;8.712;2022-12-18T12:45:47;82.97;;;36.20;;
25351;SDS011;13304;48.464;8.712;2022-12-18T12:49:16;79.20;;;33.40;;
25351;SDS011;13304;48.464;8.712;2022-12-18T12:51:25;81.33;;;35.60;;
25351;SDS011;13304;48.464;8.712;2022-12-18T12:53:57;84.77;;;35.77;;
25351;SDS011;13304;48.464;8.712;2022-12-18T12:56:24;89.83;;;37.53;;
25351;SDS011;13304;48.464;8.712;2022-12-18T13:01:53;86.90;;;36.10;;
25351;SDS011;13304;48.464;8.712;2022-12-18T13:07:00;87.83;;;37.87;;
25351;SDS011;13304;48.464;8.712;2022-12-18T13:09:30;81.73;;;35.20;;
25351;SDS011;13304;48.464;8.712;2022-12-18T13:12:01;77.10;;;34.70;;
25351;SDS011;13304;48.464;8.712;2022-12-18T13:14:54;80.10;;;35.47;;
25351;SDS011;13304;48.464;8.712;2022-12-18T13:17:39;86.27;;;36.90;;
25351;SDS011;13304;48.464;8.712;2022-12-18T13:20:11;91.90;;;38.60;;
25351;SDS011;13304;48.464;8.712;2022-12-18T13:28:01;84.77;;;35.10;;
25351;SDS011;13304;48.464;8.712;2022-12-18T13:40:56;85.53;;;37.00;;
25351;SDS011;13304;48.464;8.712;2022-12-18T13:43:24;85.03;;;37.67;;
25351;SDS011;13304;48.464;8.712;2022-12-18T13:48:41;71.53;;;30.43;;
25351;SDS011;13304;48.464;8.712;2022-12-18T13:51:34;80.73;;;36.53;;
25351;SDS011;13304;48.464;8.712;2022-12-18T13:56:45;77.20;;;35.20;;
25351;SDS011;13304;48.464;8.712;2022-12-18T14:02:27;69.93;;;30.23;;
25351;SDS011;13304;48.464;8.712;2022-12-18T14:04:39;83.20;;;37.23;;
25351;SDS011;13304;48.464;8.712;2022-12-18T14:07:10;86.17;;;39.33;;
25351;SDS011;13304;48.464;8.712;2022-12-18T14:09:43;80.10;;;36.27;;
25351;SDS011;13304;48.464;8.712;2022-12-18T14:12:32;89.20;;;37.97;;
25351;SDS011;13304;48.464;8.712;2022-12-18T14:17:51;90.90;;;38.83;;
25351;SDS011;13304;48.464;8.712;2022-12-18T14:20:20;88.47;;;38.60;;
25351;SDS011;13304;48.464;8.712;2022-12-18T14:22:47;86.83;;;38.93;;
25351;SDS011;13304;48.464;8.712;2022-12-18T14:27:44;83.15;;;37.55;;
25351;SDS011;13304;48.464;8.712;2022-12-18T14:30:24;90.03;;;37.95;;
25351;SDS011;13304;48.464;8.712;2022-12-18T14:38:19;84.13;;;37.13;;
25351;SDS011;13304;48.464;8.712;2022-12-18T14:40:56;89.87;;;38.67;;
25351;SDS011;13304;48.464;8.712;2022-12-18T14:43:24;76.20;;;35.53;;
25351;SDS011;13304;48.464;8.712;2022-12-18T14:45:51;79.23;;;35.90;;
25351;SDS011;13304;48.464;8.712;2022-12-18T14:48:34;88.17;;;38.17;;
25351;SDS011;13304;48.464;8.712;2022-12-18T14:51:06;79.27;;;35.87;;
25351;SDS011;13304;48.464;8.712;2022-12-18T14:53:41;83.93;;;35.67;;
25351;SDS011;13304;48.464;8.712;2022-12-18T14:59:21;88.30;;;38.87;;
25351;SDS011;13304;48.464;8.712;2022-12-18T15:04:44;89.37;;;40.23;;
25351;SDS011;13304;48.464;8.712;2022-12-18T15:09:42;90.00;;;38.67;;
25351;SDS011;13304;48.464;8.712;2022-12-18T15:12:38;80.60;;;35.73;;
25351;SDS011;13304;48.464;8.712;2022-12-18T15:15:05;87.80;;;38.17;;
25351;SDS011;13304;48.464;8.712;2022-12-18T15:25:48;72.77;;;32.57;;
25351;SDS011;13304;48.464;8.712;2022-12-18T15:29:15;77.23;;;33.63;;
25351;SDS011;13304;48.464;8.712;2022-12-18T15:31:23;85.10;;;36.67;;
25351;SDS011;13304;48.464;8.712;2022-12-18T15:36:24;87.40;;;38.30;;
25351;SDS011;13304;48.464;8.712;2022-12-18T15:38:56;86.80;;;36.97;;
25351;SDS011;13304;48.464;8.712;2022-12-18T15:41:22;84.77;;;37.93;;
25351;SDS011;13304;48.464;8.712;2022-12-18T15:43:50;96.47;;;39.30;;
25351;SDS011;13304;48.464;8.712;2022-12-18T15:46:21;90.27;;;40.23;;
25351;SDS011;13304;48.464;8.712;2022-12-18T15:48:49;93.87;;;41.30;;
25351;SDS011;13304;48.464;8.712;2022-12-18T15:51:20;91.07;;;39.10;;
25351;SDS011;13304;48.464;8.712;2022-12-18T15:53:53;93.60;;;41.53;;
25351;SDS011;13304;48.464;8.712;2022-12-18T15:56:21;101.47;;;43.50;;
25351;SDS011;13304;48.464;8.712;2022-12-18T15:59:10;86.53;;;39.73;;
25351;SDS011;13304;48.464;8.712;2022-12-18T16:01:37;89.63;;;40.17;;
25351;SDS011;13304;48.464;8.712;2022-12-18T16:04:03;93.30;;;40.30;;
25351;SDS011;13304;48.464;8.712;2022-12-18T16:06:29;86.00;;;39.13;;
25351;SDS011;13304;48.464;8.712;2022-12-18T16:08:54;101.20;;;43.07;;
25351;SDS011;13304;48.464;8.712;2022-12-18T16:11:22;110.43;;;46.60;;
25351;SDS011;13304;48.464;8.712;2022-12-18T16:14:25;110.53;;;46.73;;
25351;SDS011;13304;48.464;8.712;2022-12-18T16:16:53;99.27;;;43.83;;
25351;SDS011;13304;48.464;8.712;2022-12-18T16:19:23;101.47;;;44.77;;
25351;SDS011;13304;48.464;8.712;2022-12-18T16:21:53;99.17;;;42.27;;
25351;SDS011;13304;48.464;8.712;2022-12-18T16:24:22;95.93;;;42.03;;
25351;SDS011;13304;48.464;8.712;2022-12-18T16:26:53;100.50;;;42.90;;
25351;SDS011;13304;48.464;8.712;2022-12-18T16:29:20;101.03;;;43.43;;
25351;SDS011;13304;48.464;8.712;2022-12-18T16:31:52;101.63;;;44.43;;
25351;SDS011;13304;48.464;8.712;2022-12-18T16:34:19;105.70;;;44.73;;
25351;SDS011;13304;48.464;8.712;2022-12-18T16:36:52;85.90;;;39.00;;
25351;SDS011;13304;48.464;8.712;2022-12-18T16:39:19;93.23;;;41.93;;
25351;SDS011;13304;48.464;8.712;2022-12-18T16:41:45;92.90;;;41.80;;
25351;SDS011;13304;48.464;8.712;2022-12-18T16:44:10;94.07;;;43.07;;
25351;SDS011;13304;48.464;8.712;2022-12-18T16:46:37;99.33;;;42.80;;